createdAt,value
2019-03-08T00:00:15.829Z,971.63
2019-03-08T00:01:15.747Z,971.62
2019-03-08T00:02:15.664Z,971.62
2019-03-08T00:03:15.579Z,971.66
2019-03-08T00:04:15.493Z,971.62
2019-03-08T00:05:15.454Z,971.63
2019-03-08T00:06:15.323Z,971.58
2019-03-08T00:07:15.241Z,971.62
2019-03-08T00:08:15.169Z,971.63
2019-03-08T00:09:15.081Z,971.61
2019-03-08T00:10:14.985Z,971.61
2019-03-08T00:11:14.901Z,971.68
2019-03-08T00:12:14.816Z,971.70
2019-03-08T00:13:14.724Z,971.72
2019-03-08T00:14:14.645Z,971.72
2019-03-08T00:15:14.564Z,971.75
2019-03-08T00:16:14.475Z,971.75
2019-03-08T00:17:14.392Z,971.73
2019-03-08T00:18:14.308Z,971.71
2019-03-08T00:19:14.218Z,971.66
2019-03-08T00:20:14.135Z,971.66
2019-03-08T00:21:14.062Z,971.67
2019-03-08T00:22:13.969Z,971.66
2019-03-08T00:23:13.882Z,971.69
2019-03-08T00:24:13.799Z,971.64
2019-03-08T00:25:13.717Z,971.70
2019-03-08T00:26:13.632Z,971.70
2019-03-08T00:27:13.557Z,971.65
2019-03-08T00:28:13.460Z,971.69
2019-03-08T00:29:13.372Z,971.67
2019-03-08T00:30:13.290Z,971.68
2019-03-08T00:31:13.206Z,971.67
2019-03-08T00:32:13.117Z,971.58
2019-03-08T00:33:13.038Z,971.67
2019-03-08T00:34:12.956Z,971.65
2019-03-08T00:35:12.892Z,971.64
2019-03-08T00:36:12.783Z,971.66
2019-03-08T00:37:12.695Z,971.66
2019-03-08T00:38:12.613Z,971.65
2019-03-08T00:39:12.524Z,971.63
2019-03-08T00:40:12.441Z,971.66
2019-03-08T00:41:12.357Z,971.69
2019-03-08T00:42:12.273Z,971.69
2019-03-08T00:43:12.199Z,971.68
2019-03-08T00:44:12.102Z,971.65
2019-03-08T00:45:12.016Z,971.66
2019-03-08T00:46:11.933Z,971.68
2019-03-08T00:47:11.849Z,971.70
2019-03-08T00:48:11.766Z,971.68
2019-03-08T00:49:11.679Z,971.70
2019-03-08T00:50:11.595Z,971.69
2019-03-08T00:51:11.511Z,971.69
2019-03-08T00:52:11.425Z,971.73
2019-03-08T00:53:11.336Z,971.76
2019-03-08T00:54:11.257Z,971.77
2019-03-08T00:55:11.196Z,971.77
2019-03-08T00:56:11.081Z,971.73
2019-03-08T00:57:11.000Z,971.75
2019-03-08T00:58:10.914Z,971.72
2019-03-08T00:59:10.829Z,971.72
2019-03-08T01:00:10.748Z,971.66
2019-03-08T01:01:10.665Z,971.66
2019-03-08T01:02:10.580Z,971.61
2019-03-08T01:03:10.494Z,971.66
2019-03-08T01:04:10.407Z,971.67
2019-03-08T01:05:10.323Z,971.66
2019-03-08T01:06:10.240Z,971.69
2019-03-08T01:07:10.157Z,971.70
2019-03-08T01:08:10.071Z,971.72
2019-03-08T01:09:09.985Z,971.70
2019-03-08T01:10:09.904Z,971.68
2019-03-08T01:11:09.818Z,971.70
2019-03-08T01:12:09.735Z,971.63
2019-03-08T01:13:09.643Z,971.58
2019-03-08T01:14:09.566Z,971.62
2019-03-08T01:15:09.477Z,971.62
2019-03-08T01:16:09.393Z,971.57
2019-03-08T01:17:09.305Z,971.53
2019-03-08T01:18:09.222Z,971.54
2019-03-08T01:19:09.141Z,971.54
2019-03-08T01:20:09.064Z,971.55
2019-03-08T01:21:08.972Z,971.55
2019-03-08T01:22:08.884Z,971.57
2019-03-08T01:23:08.803Z,971.55
2019-03-08T01:24:08.718Z,971.50
2019-03-08T01:25:08.628Z,971.50
2019-03-08T01:26:08.542Z,971.51
2019-03-08T01:27:08.463Z,971.51
2019-03-08T01:28:08.376Z,971.49
2019-03-08T01:29:08.286Z,971.48
2019-03-08T01:30:08.208Z,971.48
2019-03-08T01:31:08.122Z,971.50
2019-03-08T01:32:08.042Z,971.53
2019-03-08T01:33:07.965Z,971.57
2019-03-08T01:34:07.876Z,971.61
2019-03-08T01:35:07.779Z,971.60
2019-03-08T01:36:07.703Z,971.61
2019-03-08T01:37:07.617Z,971.64
2019-03-08T01:38:07.528Z,971.66
2019-03-08T01:39:07.445Z,971.71
2019-03-08T01:40:07.357Z,971.73
2019-03-08T01:41:07.275Z,971.72
2019-03-08T01:42:07.187Z,971.79
2019-03-08T01:43:07.112Z,971.78
2019-03-08T01:44:07.021Z,971.80
2019-03-08T01:45:06.937Z,971.84
2019-03-08T01:46:06.853Z,971.85
2019-03-08T01:47:06.780Z,971.84
2019-03-08T01:48:06.683Z,971.86
2019-03-08T01:49:06.597Z,971.87
2019-03-08T01:50:06.515Z,971.89
2019-03-08T01:51:06.430Z,971.88
2019-03-08T01:52:06.354Z,971.83
2019-03-08T01:53:06.259Z,971.83
2019-03-08T01:54:06.175Z,971.81
2019-03-08T01:55:06.090Z,971.85
2019-03-08T01:56:06.008Z,971.80
2019-03-08T01:57:05.919Z,971.82
2019-03-08T01:58:05.835Z,971.84
2019-03-08T01:59:05.754Z,971.85
2019-03-08T02:00:05.678Z,971.84
2019-03-08T02:01:05.581Z,971.83
2019-03-08T02:02:05.496Z,971.84
2019-03-08T02:03:05.411Z,971.75
2019-03-08T02:04:05.325Z,971.75
2019-03-08T02:05:05.241Z,971.72
2019-03-08T02:06:05.160Z,971.75
2019-03-08T02:07:05.072Z,971.78
2019-03-08T02:08:04.987Z,971.74
2019-03-08T02:09:04.905Z,971.77
2019-03-08T02:10:04.817Z,971.80
2019-03-08T02:11:04.732Z,971.78
2019-03-08T02:12:04.646Z,971.78
2019-03-08T02:13:04.574Z,971.83
2019-03-08T02:14:04.475Z,971.79
2019-03-08T02:15:04.395Z,971.74
2019-03-08T02:16:04.409Z,971.71
2019-03-08T02:17:04.220Z,971.72
2019-03-08T02:18:04.143Z,971.71
2019-03-08T02:19:04.055Z,971.75
2019-03-08T02:20:03.968Z,971.72
2019-03-08T02:21:07.467Z,971.73
2019-03-08T02:22:03.799Z,971.76
2019-03-08T02:23:03.715Z,971.81
2019-03-08T02:24:03.631Z,971.83
2019-03-08T02:25:03.544Z,971.85
2019-03-08T02:26:03.460Z,971.85
2019-03-08T02:27:03.378Z,971.82
2019-03-08T02:28:03.287Z,971.85
2019-03-08T02:29:03.209Z,971.85
2019-03-08T02:30:03.123Z,971.87
2019-03-08T02:31:03.035Z,971.80
2019-03-08T02:32:02.984Z,971.75
2019-03-08T02:33:02.870Z,971.80
2019-03-08T02:34:02.785Z,971.74
2019-03-08T02:35:02.700Z,971.77
2019-03-08T02:36:02.618Z,971.77
2019-03-08T02:37:02.539Z,971.79
2019-03-08T02:38:02.443Z,971.83
2019-03-08T02:39:02.356Z,971.86
2019-03-08T02:40:02.274Z,971.82
2019-03-08T02:41:02.187Z,971.82
2019-03-08T02:42:02.102Z,971.79
2019-03-08T02:43:02.019Z,971.78
2019-03-08T02:44:01.934Z,971.80
2019-03-08T02:45:01.849Z,971.81
2019-03-08T02:46:01.756Z,971.79
2019-03-08T02:47:01.705Z,971.79
2019-03-08T02:48:01.589Z,971.75
2019-03-08T02:49:01.508Z,971.78
2019-03-08T02:50:01.429Z,971.70
2019-03-08T02:51:01.337Z,971.70
2019-03-08T02:52:01.249Z,971.72
2019-03-08T02:53:01.162Z,971.74
2019-03-08T02:54:01.078Z,971.70
2019-03-08T02:55:00.994Z,971.67
2019-03-08T02:56:00.915Z,971.68
2019-03-08T02:57:00.829Z,971.61
2019-03-08T02:58:00.745Z,971.60
2019-03-08T02:59:00.658Z,971.64
2019-03-08T03:00:00.572Z,971.62
2019-03-08T03:01:00.487Z,971.66
2019-03-08T03:02:00.402Z,971.64
2019-03-08T03:03:00.317Z,971.65
2019-03-08T03:04:00.234Z,971.66
2019-03-08T03:05:00.150Z,971.71
2019-03-08T03:06:00.064Z,971.67
2019-03-08T03:06:59.980Z,971.67
2019-03-08T03:07:59.893Z,971.67
2019-03-08T03:08:59.805Z,971.72
2019-03-08T03:09:59.724Z,971.70
2019-03-08T03:10:59.636Z,971.68
2019-03-08T03:11:59.553Z,971.73
2019-03-08T03:12:59.473Z,971.70
2019-03-08T03:13:59.378Z,971.71
2019-03-08T03:14:59.298Z,971.72
2019-03-08T03:15:59.310Z,971.73
2019-03-08T03:16:59.128Z,971.84
2019-03-08T03:17:59.044Z,971.76
2019-03-08T03:18:58.959Z,971.82
2019-03-08T03:19:58.874Z,971.79
2019-03-08T03:20:58.788Z,971.79
2019-03-08T03:21:58.702Z,971.74
2019-03-08T03:22:58.617Z,971.78
2019-03-08T03:23:58.533Z,971.84
2019-03-08T03:24:58.446Z,971.85
2019-03-08T03:25:58.369Z,971.81
2019-03-08T03:26:58.278Z,971.91
2019-03-08T03:27:58.192Z,971.88
2019-03-08T03:28:58.108Z,971.85
2019-03-08T03:29:58.026Z,971.90
2019-03-08T03:30:57.933Z,971.94
2019-03-08T03:31:57.853Z,971.98
2019-03-08T03:32:57.772Z,971.97
2019-03-08T03:33:57.684Z,971.99
2019-03-08T03:34:57.599Z,971.97
2019-03-08T03:35:57.515Z,971.93
2019-03-08T03:36:57.428Z,971.86
2019-03-08T03:37:57.352Z,971.85
2019-03-08T03:38:57.260Z,971.85
2019-03-08T03:39:57.176Z,971.82
2019-03-08T03:40:57.084Z,971.87
2019-03-08T03:41:57.002Z,971.90
2019-03-08T03:42:56.927Z,971.92
2019-03-08T03:43:56.829Z,971.92
2019-03-08T03:44:56.745Z,971.91
2019-03-08T03:45:56.653Z,971.90
2019-03-08T03:46:56.577Z,971.92
2019-03-08T03:47:56.493Z,971.85
2019-03-08T03:48:56.406Z,971.85
2019-03-08T03:49:56.332Z,971.83
2019-03-08T03:50:56.237Z,971.80
2019-03-08T03:51:56.150Z,971.81
2019-03-08T03:52:56.064Z,971.82
2019-03-08T03:53:55.982Z,971.78
2019-03-08T03:54:55.896Z,971.78
2019-03-08T03:55:55.812Z,971.79
2019-03-08T03:56:55.724Z,971.82
2019-03-08T03:57:55.642Z,971.80
2019-03-08T03:58:55.554Z,971.80
2019-03-08T03:59:55.464Z,971.81
2019-03-08T04:00:55.384Z,971.82
2019-03-08T04:01:55.300Z,971.83
2019-03-08T04:02:55.249Z,971.87
2019-03-08T04:03:55.133Z,971.90
2019-03-08T04:04:55.044Z,971.91
2019-03-08T04:05:54.957Z,971.93
2019-03-08T04:06:54.874Z,971.94
2019-03-08T04:07:54.789Z,971.91
2019-03-08T04:08:54.701Z,971.96
2019-03-08T04:09:54.618Z,971.95
2019-03-08T04:10:54.534Z,971.93
2019-03-08T04:11:54.443Z,971.93
2019-03-08T04:12:54.366Z,971.93
2019-03-08T04:13:54.278Z,971.92
2019-03-08T04:14:54.200Z,971.96
2019-03-08T04:15:54.110Z,971.92
2019-03-08T04:16:54.019Z,971.99
2019-03-08T04:17:53.945Z,971.99
2019-03-08T04:18:53.853Z,971.98
2019-03-08T04:19:53.765Z,972.02
2019-03-08T04:20:53.682Z,971.98
2019-03-08T04:21:53.588Z,971.98
2019-03-08T04:22:53.506Z,972.04
2019-03-08T04:23:53.425Z,971.99
2019-03-08T04:24:53.337Z,972.02
2019-03-08T04:25:53.251Z,972.02
2019-03-08T04:26:53.166Z,972.02
2019-03-08T04:27:53.083Z,972.03
2019-03-08T04:28:53.031Z,971.98
2019-03-08T04:29:52.922Z,972.00
2019-03-08T04:30:52.841Z,972.05
2019-03-08T04:31:52.739Z,972.05
2019-03-08T04:32:52.656Z,972.09
2019-03-08T04:33:52.571Z,972.16
2019-03-08T04:34:52.484Z,972.15
2019-03-08T04:35:52.400Z,972.17
2019-03-08T04:36:52.316Z,972.18
2019-03-08T04:37:52.227Z,972.18
2019-03-08T04:38:52.143Z,972.23
2019-03-08T04:39:52.060Z,972.21
2019-03-08T04:40:51.972Z,972.21
2019-03-08T04:41:51.889Z,972.29
2019-03-08T04:42:51.801Z,972.26
2019-03-08T04:43:51.719Z,972.29
2019-03-08T04:44:51.631Z,972.32
2019-03-08T04:45:51.546Z,972.32
2019-03-08T04:46:51.459Z,972.31
2019-03-08T04:47:51.374Z,972.29
2019-03-08T04:48:51.289Z,972.29
2019-03-08T04:49:51.203Z,972.35
2019-03-08T04:50:51.119Z,972.28
2019-03-08T04:51:51.036Z,972.35
2019-03-08T04:52:50.947Z,972.28
2019-03-08T04:53:50.861Z,972.29
2019-03-08T04:54:50.776Z,972.30
2019-03-08T04:55:50.695Z,972.29
2019-03-08T04:56:50.601Z,972.31
2019-03-08T04:57:50.522Z,972.29
2019-03-08T04:58:50.437Z,972.30
2019-03-08T04:59:50.349Z,972.35
2019-03-08T05:00:50.265Z,972.40
2019-03-08T05:01:50.180Z,972.38
2019-03-08T05:02:50.097Z,972.41
2019-03-08T05:03:50.008Z,972.47
2019-03-08T05:04:49.923Z,972.44
2019-03-08T05:05:49.833Z,972.50
2019-03-08T05:06:49.751Z,972.46
2019-03-08T05:07:49.665Z,972.49
2019-03-08T05:08:49.578Z,972.54
2019-03-08T05:09:49.495Z,972.59
2019-03-08T05:10:49.409Z,972.57
2019-03-08T05:11:49.326Z,972.60
2019-03-08T05:12:49.242Z,972.61
2019-03-08T05:13:49.152Z,972.61
2019-03-08T05:14:49.069Z,972.64
2019-03-08T05:15:48.981Z,972.67
2019-03-08T05:16:48.896Z,972.62
2019-03-08T05:17:48.815Z,972.58
2019-03-08T05:18:48.725Z,972.63
2019-03-08T05:19:48.644Z,972.62
2019-03-08T05:20:48.564Z,972.62
2019-03-08T05:21:48.471Z,972.67
2019-03-08T05:22:48.387Z,972.67
2019-03-08T05:23:48.300Z,972.71
2019-03-08T05:24:48.213Z,972.73
2019-03-08T05:25:48.130Z,972.68
2019-03-08T05:26:48.041Z,972.71
2019-03-08T05:27:47.956Z,972.70
2019-03-08T05:28:47.872Z,972.73
2019-03-08T05:29:47.783Z,972.74
2019-03-08T05:30:47.697Z,972.73
2019-03-08T05:31:47.611Z,972.73
2019-03-08T05:32:47.536Z,972.74
2019-03-08T05:33:47.446Z,972.68
2019-03-08T05:34:47.362Z,972.77
2019-03-08T05:35:47.271Z,972.73
2019-03-08T05:36:47.187Z,972.74
2019-03-08T05:37:47.105Z,972.72
2019-03-08T05:38:47.019Z,972.74
2019-03-08T05:39:46.931Z,972.71
2019-03-08T05:40:46.844Z,972.74
2019-03-08T05:41:46.762Z,972.78
2019-03-08T05:42:46.674Z,972.81
2019-03-08T05:43:46.592Z,972.81
2019-03-08T05:44:46.502Z,972.85
2019-03-08T05:45:46.415Z,972.81
2019-03-08T05:46:46.334Z,972.84
2019-03-08T05:47:46.255Z,972.87
2019-03-08T05:48:46.161Z,972.87
2019-03-08T05:49:46.077Z,972.91
2019-03-08T05:50:45.991Z,972.89
2019-03-08T05:51:45.907Z,972.90
2019-03-08T05:52:45.821Z,972.88
2019-03-08T05:53:45.733Z,972.92
2019-03-08T05:54:45.650Z,972.94
2019-03-08T05:55:45.566Z,972.94
2019-03-08T05:56:45.487Z,972.94
2019-03-08T05:57:45.392Z,972.96
2019-03-08T05:58:45.309Z,972.98
2019-03-08T05:59:45.551Z,972.93
2019-03-08T06:00:45.135Z,973.02
2019-03-08T06:01:45.050Z,973.02
2019-03-08T06:02:44.965Z,973.06
2019-03-08T06:03:44.876Z,973.09
2019-03-08T06:04:44.793Z,973.12
2019-03-08T06:05:44.710Z,973.06
2019-03-08T06:06:44.621Z,973.05
2019-03-08T06:07:44.545Z,973.08
2019-03-08T06:08:44.451Z,973.14
2019-03-08T06:09:44.364Z,973.17
2019-03-08T06:10:44.278Z,973.18
2019-03-08T06:11:44.195Z,973.22
2019-03-08T06:12:44.116Z,973.21
2019-03-08T06:13:44.024Z,973.26
2019-03-08T06:14:43.941Z,973.22
2019-03-08T06:15:43.855Z,973.21
2019-03-08T06:16:43.767Z,973.23
2019-03-08T06:17:43.691Z,973.22
2019-03-08T06:18:43.594Z,973.25
2019-03-08T06:19:43.514Z,973.27
2019-03-08T06:20:43.427Z,973.21
2019-03-08T06:21:43.380Z,973.17
2019-03-08T06:22:43.255Z,973.22
2019-03-08T06:23:43.175Z,973.19
2019-03-08T06:24:43.086Z,973.22
2019-03-08T06:25:43.000Z,973.27
2019-03-08T06:26:42.916Z,973.25
2019-03-08T06:27:42.830Z,973.49
2019-03-08T06:28:42.742Z,973.30
2019-03-08T06:29:42.657Z,973.33
2019-03-08T06:30:42.575Z,973.38
2019-03-08T06:31:42.485Z,973.35
2019-03-08T06:32:42.396Z,973.38
2019-03-08T06:33:42.314Z,973.39
2019-03-08T06:34:42.227Z,973.43
2019-03-08T06:35:42.148Z,973.48
2019-03-08T06:36:42.057Z,973.45
2019-03-08T06:37:41.976Z,973.47
2019-03-08T06:38:41.889Z,973.47
2019-03-08T06:39:41.805Z,973.45
2019-03-08T06:40:41.728Z,973.47
2019-03-08T06:41:41.635Z,973.44
2019-03-08T06:42:41.548Z,973.47
2019-03-08T06:43:41.456Z,973.50
2019-03-08T06:44:41.379Z,973.51
2019-03-08T06:45:41.293Z,973.48
2019-03-08T06:46:41.208Z,973.54
2019-03-08T06:47:41.121Z,973.56
2019-03-08T06:48:41.034Z,973.58
2019-03-08T06:49:40.951Z,973.52
2019-03-08T06:50:40.927Z,973.51
2019-03-08T06:51:40.776Z,973.52
2019-03-08T06:52:40.691Z,973.60
2019-03-08T06:53:40.633Z,973.62
2019-03-08T06:54:40.526Z,973.65
2019-03-08T06:55:40.438Z,973.65
2019-03-08T06:56:40.355Z,973.66
2019-03-08T06:57:40.266Z,973.71
2019-03-08T06:58:40.183Z,973.72
2019-03-08T06:59:40.099Z,973.78
2019-03-08T07:00:40.021Z,973.74
2019-03-08T07:01:39.924Z,973.82
2019-03-08T07:02:39.841Z,973.86
2019-03-08T07:03:39.758Z,973.91
2019-03-08T07:04:39.669Z,973.97
2019-03-08T07:05:39.587Z,973.87
2019-03-08T07:06:39.499Z,973.93
2019-03-08T07:07:39.414Z,973.95
2019-03-08T07:08:39.330Z,973.93
2019-03-08T07:09:39.250Z,973.93
2019-03-08T07:10:39.163Z,973.97
2019-03-08T07:11:39.073Z,974.03
2019-03-08T07:12:38.983Z,974.07
2019-03-08T07:13:38.904Z,974.08
2019-03-08T07:14:38.820Z,974.12
2019-03-08T07:15:38.738Z,974.17
2019-03-08T07:16:38.653Z,974.14
2019-03-08T07:17:38.565Z,974.16
2019-03-08T07:18:38.474Z,974.24
2019-03-08T07:19:41.004Z,974.24
2019-03-08T07:20:38.308Z,974.29
2019-03-08T07:21:38.222Z,974.20
2019-03-08T07:22:38.138Z,974.25
2019-03-08T07:23:38.053Z,974.32
2019-03-08T07:24:37.967Z,974.37
2019-03-08T07:25:37.883Z,974.35
2019-03-08T07:26:37.800Z,974.33
2019-03-08T07:28:46.284Z,974.36
2019-03-08T07:30:42.918Z,974.36
2019-03-08T07:31:42.820Z,974.32
2019-03-08T07:33:53.075Z,974.41
2019-03-08T07:34:48.047Z,974.44
2019-03-08T07:35:47.961Z,974.42
2019-03-08T07:36:47.875Z,974.44
2019-03-08T07:37:47.794Z,974.46
2019-03-08T07:38:47.704Z,974.50
2019-03-08T07:39:47.619Z,974.52
2019-03-08T07:40:47.535Z,974.58
2019-03-08T07:41:47.451Z,974.59
2019-03-08T07:42:47.363Z,974.62
2019-03-08T07:43:47.281Z,974.76
2019-03-08T07:44:47.195Z,974.68
2019-03-08T07:45:47.110Z,974.72
2019-03-08T07:46:47.034Z,974.71
2019-03-08T07:47:46.942Z,974.75
2019-03-08T07:48:46.857Z,974.74
2019-03-08T07:49:46.772Z,974.78
2019-03-08T07:50:47.004Z,974.94
2019-03-08T07:51:46.608Z,974.84
2019-03-08T07:52:46.521Z,974.84
2019-03-08T07:53:46.438Z,974.79
2019-03-08T07:54:52.731Z,974.70
2019-03-08T07:55:46.581Z,974.59
2019-03-08T07:56:46.190Z,974.76
2019-03-08T07:57:46.098Z,974.77
2019-03-08T07:58:46.016Z,974.75
2019-03-08T07:59:53.361Z,974.82
2019-03-08T08:00:45.846Z,974.89
2019-03-08T08:01:45.761Z,974.87
2019-03-08T08:02:45.676Z,974.95
2019-03-08T08:03:45.590Z,974.91
2019-03-08T08:04:45.507Z,975.02
2019-03-08T08:05:45.426Z,975.03
2019-03-08T08:06:45.339Z,975.03
2019-03-08T08:07:45.255Z,975.06
2019-03-08T08:08:51.533Z,975.07
2019-03-08T08:09:45.088Z,975.24
2019-03-08T08:10:45.001Z,975.19
2019-03-08T08:11:44.920Z,975.20
2019-03-08T08:12:44.835Z,975.20
2019-03-08T08:13:44.750Z,975.30
2019-03-08T08:14:44.661Z,975.32
2019-03-08T08:15:45.491Z,975.22
2019-03-08T08:16:44.497Z,975.47
2019-03-08T08:17:44.429Z,975.38
2019-03-08T08:18:44.329Z,975.41
2019-03-08T08:19:44.246Z,975.48
2019-03-08T08:20:44.158Z,975.48
2019-03-08T08:21:44.078Z,975.51
2019-03-08T08:22:43.994Z,975.63
2019-03-08T08:23:43.904Z,975.68
2019-03-08T08:24:43.825Z,975.57
2019-03-08T08:25:43.741Z,975.66
2019-03-08T08:26:43.655Z,975.66
2019-03-08T08:27:43.569Z,975.60
2019-03-08T08:28:49.974Z,975.65
2019-03-08T08:29:43.400Z,975.72
2019-03-08T08:30:43.315Z,975.63
2019-03-08T08:31:43.266Z,975.70
2019-03-08T08:32:43.147Z,975.64
2019-03-08T08:33:43.066Z,975.70
2019-03-08T08:34:42.980Z,975.68
2019-03-08T08:35:42.896Z,975.73
2019-03-08T08:36:42.811Z,975.61
2019-03-08T08:37:42.724Z,975.72
2019-03-08T08:38:42.648Z,975.66
2019-03-08T08:39:42.554Z,975.69
2019-03-08T08:40:42.481Z,975.78
2019-03-08T08:41:42.390Z,975.67
2019-03-08T08:42:42.302Z,975.80
2019-03-08T08:43:42.220Z,975.77
2019-03-08T08:44:42.134Z,975.70
2019-03-08T08:45:42.054Z,975.68
2019-03-08T08:46:41.966Z,975.70
2019-03-08T08:47:41.883Z,975.81
2019-03-08T08:48:41.797Z,975.63
2019-03-08T08:49:41.715Z,975.71
2019-03-08T08:50:41.629Z,975.70
2019-03-08T08:51:41.543Z,975.78
2019-03-08T08:52:41.461Z,975.75
2019-03-08T08:53:41.381Z,975.80
2019-03-08T08:54:41.290Z,975.73
2019-03-08T08:55:41.208Z,975.75
2019-03-08T08:56:41.119Z,975.76
2019-03-08T08:57:41.039Z,975.76
2019-03-08T08:58:40.956Z,975.81
2019-03-08T08:59:40.874Z,975.90
2019-03-08T09:00:40.790Z,975.96
2019-03-08T09:01:40.707Z,975.87
2019-03-08T09:02:40.618Z,975.86
2019-03-08T09:03:40.536Z,975.85
2019-03-08T09:04:40.450Z,975.84
2019-03-08T09:05:40.365Z,975.86
2019-03-08T09:06:40.282Z,975.80
2019-03-08T09:07:40.199Z,975.81
2019-03-08T09:08:40.113Z,975.88
2019-03-08T09:09:40.031Z,975.85
2019-03-08T09:10:39.964Z,975.85
2019-03-08T09:11:45.817Z,975.89
2019-03-08T09:12:39.778Z,975.88
2019-03-08T09:13:39.695Z,976.01
2019-03-08T09:14:39.610Z,975.82
2019-03-08T09:15:39.525Z,975.85
2019-03-08T09:16:39.443Z,975.93
2019-03-08T09:17:39.376Z,975.95
2019-03-08T09:18:39.277Z,975.89
2019-03-08T09:19:39.189Z,975.87
2019-03-08T09:20:39.109Z,975.90
2019-03-08T09:21:39.026Z,975.91
2019-03-08T09:22:38.942Z,975.93
2019-03-08T09:23:38.858Z,976.00
2019-03-08T09:24:38.772Z,976.01
2019-03-08T09:25:38.690Z,975.93
2019-03-08T09:26:38.607Z,975.96
2019-03-08T09:27:38.523Z,976.06
2019-03-08T09:28:38.442Z,976.03
2019-03-08T09:29:41.346Z,976.09
2019-03-08T09:30:38.271Z,976.10
2019-03-08T09:31:38.191Z,975.99
2019-03-08T09:32:38.109Z,976.18
2019-03-08T09:33:38.026Z,976.13
2019-03-08T09:34:37.948Z,976.19
2019-03-08T09:35:37.856Z,976.26
2019-03-08T09:36:37.771Z,976.19
2019-03-08T09:37:37.689Z,976.21
2019-03-08T09:38:37.606Z,976.19
2019-03-08T09:39:37.519Z,976.15
2019-03-08T09:40:37.440Z,976.21
2019-03-08T09:41:37.358Z,976.15
2019-03-08T09:42:37.269Z,976.11
2019-03-08T09:43:37.193Z,976.16
2019-03-08T09:44:37.103Z,976.16
2019-03-08T09:45:37.024Z,976.25
2019-03-08T09:46:36.940Z,976.24
2019-03-08T09:47:36.856Z,976.30
2019-03-08T09:48:36.777Z,976.32
2019-03-08T09:49:36.687Z,976.24
2019-03-08T09:50:36.606Z,976.25
2019-03-08T09:51:36.520Z,976.32
2019-03-08T09:52:36.439Z,976.37
2019-03-08T09:53:36.356Z,976.40
2019-03-08T09:54:36.272Z,976.39
2019-03-08T09:55:36.191Z,976.59
2019-03-08T09:56:36.116Z,976.47
2019-03-08T09:57:36.023Z,976.45
2019-03-08T09:58:35.939Z,976.49
2019-03-08T09:59:35.863Z,976.51
2019-03-08T10:00:35.787Z,976.55
2019-03-08T10:01:35.694Z,976.53
2019-03-08T10:02:35.628Z,976.58
2019-03-08T10:03:35.525Z,976.51
2019-03-08T10:04:35.441Z,976.52
2019-03-08T10:05:35.357Z,976.48
2019-03-08T10:06:35.276Z,976.51
2019-03-08T10:07:35.191Z,976.60
2019-03-08T10:08:35.108Z,976.58
2019-03-08T10:09:35.030Z,976.60
2019-03-08T10:10:34.941Z,976.56
2019-03-08T10:11:34.861Z,976.50
2019-03-08T10:12:34.778Z,976.48
2019-03-08T10:13:34.693Z,976.52
2019-03-08T10:14:34.607Z,976.50
2019-03-08T10:15:34.525Z,976.55
2019-03-08T10:16:34.442Z,976.52
2019-03-08T10:17:34.360Z,976.54
2019-03-08T10:18:34.271Z,976.43
2019-03-08T10:19:34.212Z,976.47
2019-03-08T10:20:34.117Z,976.59
2019-03-08T10:21:34.031Z,976.56
2019-03-08T10:22:33.945Z,976.52
2019-03-08T10:23:33.861Z,976.49
2019-03-08T10:24:33.774Z,976.48
2019-03-08T10:25:33.694Z,976.50
2019-03-08T10:26:33.613Z,976.52
2019-03-08T10:27:38.047Z,976.61
2019-03-08T10:28:33.447Z,976.64
2019-03-08T10:29:33.363Z,976.51
2019-03-08T10:30:33.284Z,976.58
2019-03-08T10:31:33.200Z,976.62
2019-03-08T10:32:37.398Z,976.62
2019-03-08T10:33:33.030Z,976.68
2019-03-08T10:34:32.947Z,976.67
2019-03-08T10:35:32.861Z,976.59
2019-03-08T10:36:32.783Z,976.65
2019-03-08T10:37:32.701Z,976.68
2019-03-08T10:38:32.616Z,976.63
2019-03-08T10:39:32.537Z,976.68
2019-03-08T10:40:32.453Z,976.71
2019-03-08T10:41:32.361Z,976.72
2019-03-08T10:42:32.286Z,976.66
2019-03-08T10:43:32.200Z,976.70
2019-03-08T10:44:32.122Z,976.66
2019-03-08T10:45:32.037Z,976.81
2019-03-08T10:46:31.953Z,976.66
2019-03-08T10:47:31.868Z,976.83
2019-03-08T10:48:31.786Z,976.67
2019-03-08T10:49:31.705Z,976.72
2019-03-08T10:50:31.619Z,976.65
2019-03-08T10:51:31.535Z,976.76
2019-03-08T10:52:31.458Z,976.85
2019-03-08T10:53:31.370Z,976.91
2019-03-08T10:54:31.293Z,976.86
2019-03-08T10:55:31.212Z,977.15
2019-03-08T10:56:31.131Z,977.00
2019-03-08T10:57:31.054Z,976.88
2019-03-08T10:58:30.971Z,976.80
2019-03-08T10:59:31.500Z,976.83
2019-03-08T11:00:30.815Z,976.90
2019-03-08T11:01:30.734Z,976.85
2019-03-08T11:02:30.662Z,976.77
2019-03-08T11:03:30.576Z,976.87
2019-03-08T11:04:30.498Z,976.92
2019-03-08T11:05:30.423Z,976.83
2019-03-08T11:06:30.347Z,976.90
2019-03-08T11:07:30.268Z,976.86
2019-03-08T11:08:30.276Z,976.94
2019-03-08T11:09:30.115Z,977.13
2019-03-08T11:10:30.037Z,977.03
2019-03-08T11:11:29.961Z,976.98
2019-03-08T11:12:29.885Z,977.07
2019-03-08T11:13:29.812Z,977.02
2019-03-08T11:14:29.740Z,977.09
2019-03-08T11:15:29.661Z,977.07
2019-03-08T11:16:29.589Z,977.12
2019-03-08T11:17:29.520Z,977.00
2019-03-08T11:18:29.450Z,977.11
2019-03-08T11:19:29.369Z,977.19
2019-03-08T11:20:29.297Z,976.99
2019-03-08T11:21:31.150Z,977.12
2019-03-08T11:22:29.154Z,976.93
2019-03-08T11:23:29.076Z,977.12
2019-03-08T11:24:29.007Z,977.10
2019-03-08T11:25:34.928Z,977.12
2019-03-08T11:26:28.859Z,977.08
2019-03-08T11:27:28.790Z,977.25
2019-03-08T11:28:28.710Z,977.14
2019-03-08T11:29:28.635Z,977.41
2019-03-08T11:30:28.558Z,977.26
2019-03-08T11:31:28.483Z,977.27
2019-03-08T11:32:28.411Z,977.24
2019-03-08T11:33:28.333Z,977.31
2019-03-08T11:34:28.265Z,977.24
2019-03-08T11:35:28.187Z,977.26
2019-03-08T11:36:28.120Z,977.09
2019-03-08T11:37:28.045Z,977.21
2019-03-08T11:38:27.975Z,977.05
2019-03-08T11:39:27.902Z,977.19
2019-03-08T11:40:27.833Z,977.12
2019-03-08T11:41:27.761Z,977.23
2019-03-08T11:42:27.688Z,977.29
2019-03-08T11:43:27.618Z,977.12
2019-03-08T11:44:27.547Z,977.09
2019-03-08T11:45:27.481Z,977.02
2019-03-08T11:46:27.405Z,977.09
2019-03-08T11:47:27.328Z,977.20
2019-03-08T11:48:27.261Z,977.15
2019-03-08T11:49:27.189Z,977.06
2019-03-08T11:50:27.113Z,977.32
2019-03-08T11:51:27.039Z,977.08
2019-03-08T11:52:26.969Z,977.03
2019-03-08T11:53:26.900Z,976.99
2019-03-08T11:54:26.821Z,977.03
2019-03-08T11:55:26.750Z,977.10
2019-03-08T11:56:26.674Z,977.10
2019-03-08T11:57:26.601Z,977.17
2019-03-08T11:58:26.527Z,977.15
2019-03-08T11:59:26.449Z,977.09
2019-03-08T12:00:26.376Z,977.03
2019-03-08T12:01:26.298Z,977.02
2019-03-08T12:02:26.222Z,977.21
2019-03-08T12:03:26.147Z,977.09
2019-03-08T12:04:26.068Z,977.24
2019-03-08T12:05:25.989Z,977.18
2019-03-08T12:06:25.914Z,977.09
2019-03-08T12:07:25.837Z,977.12
2019-03-08T12:08:25.759Z,977.13
2019-03-08T12:09:25.681Z,977.12
2019-03-08T12:10:25.603Z,977.25
2019-03-08T12:11:25.527Z,977.19
2019-03-08T12:12:25.447Z,977.23
2019-03-08T12:13:25.371Z,977.10
2019-03-08T12:14:25.299Z,977.28
2019-03-08T12:15:25.224Z,977.14
2019-03-08T12:16:25.148Z,977.16
2019-03-08T12:17:25.069Z,977.15
2019-03-08T12:18:24.991Z,977.19
2019-03-08T12:19:24.920Z,977.26
2019-03-08T12:20:24.853Z,977.16
2019-03-08T12:21:24.770Z,977.15
2019-03-08T12:22:24.695Z,977.08
2019-03-08T12:23:24.621Z,977.11
2019-03-08T12:24:24.548Z,977.13
2019-03-08T12:25:24.472Z,977.11
2019-03-08T12:26:24.425Z,977.22
2019-03-08T12:27:24.326Z,977.20
2019-03-08T12:28:24.241Z,977.18
2019-03-08T12:29:24.173Z,977.06
2019-03-08T12:30:24.095Z,977.10